This is the latest recevied weather packets stored in our database for station/object DB0SWS-6. If no packets are shown the sender has not sent any weather packets the latest 10 day(s).
| Time | Temp. | Humidity | Pressure | Rain* | Wind** | Luminosity | Snow |
|---|---|---|---|---|---|---|---|
| 1777831410 | 17.22° C | 48% | 960.8 hPa | 0 mm | - | - | - |
| 1777829610 | 17.78° C | 46% | 961 hPa | 0 mm | - | - | - |
| 1777827809 | 18.33° C | 44% | 960.9 hPa | 0 mm | - | - | - |
| 1777826011 | 18.33° C | 44% | 960.9 hPa | 0 mm | - | - | - |
| 1777824210 | 19.44° C | 41% | 960.7 hPa | 0 mm | - | - | - |
| 1777822411 | 20° C | 37% | 960.3 hPa | 0 mm | - | - | - |
| 1777820610 | 22.78° C | 40% | 959.6 hPa | 0 mm | - | - | - |
| 1777818810 | 22.78° C | 39% | 959.6 hPa | 0 mm | - | - | - |
| 1777817009 | 22.78° C | 17% | 960 hPa | 0 mm | - | - | - |
| 1777813411 | 22.22° C | 42% | 960.2 hPa | 0 mm | - | - | - |
| 1777809810 | 21.67° C | 46% | 960.6 hPa | 0 mm | - | - | - |
| 1777806210 | 21.11° C | 62% | 960.8 hPa | 0 mm | - | - | - |
| 1777804409 | 20.56° C | 60% | 961.1 hPa | 0 mm | - | - | - |
| 1777802611 | 20° C | 59% | 961.4 hPa | 0 mm | - | - | - |
| 1777800810 | 19.44° C | 70% | 961.7 hPa | 0 mm | - | - | - |
| 1777799009 | 16.67° C | 83% | 961.8 hPa | 0 mm | - | - | - |
| 1777797211 | 15° C | 93% | 962.1 hPa | 0 mm | - | - | - |
| 1777795410 | 13.33° C | 96% | 962.3 hPa | 0.25 mm | - | - | - |
| 1777793610 | 12.78° C | 97% | 962.3 hPa | 1.52 mm | - | - | - |
| 1777791810 | 12.78° C | 99% | 962.4 hPa | 2.03 mm | - | - | - |
| 1777790010 | 13.33° C | 95% | 962.1 hPa | 1.02 mm | - | - | - |
| 1777788211 | 13.33° C | 97% | 962.1 hPa | 0.25 mm | - | - | - |
| 1777786410 | 12.78° C | 96% | 961.9 hPa | 0.51 mm | - | - | - |
| 1777784610 | 12.78° C | 89% | 961.4 hPa | 0.25 mm | - | - | - |
| 1777782811 | 14.44° C | 63% | 961.7 hPa | 0 mm | - | - | - |
* Rain latest hour (hover to see other rain measurements)
** Current wind speed in m/s (hover to see current wind gust speed)